Terminal Aerodrome Forecast
Issued by NWS Quad Cities IA IL

Home | Current Version | Previous Version | Text Only | Print | Product List | Glossary On
Versions: 1 2 3 4 5 6 7 8 9 10 11 12 13 14
000
FTUS43 KDVN 242323
TAFMLI
TAF
KMLI 242323Z 2500/2524 20009KT P6SM VCSH SCT040 BKN070
     FM250200 18004KT P6SM SCT050
     FM251400 17011KT P6SM SCT050 BKN120 PROB30 2516/2520 -TSRA
      BKN050CB
     FM252000 18014G20KT P6SM VCTS BKN050CB=

USA.gov is the U.S. government's official web portal to all federal, state and local government web resources and services.